TimeAKDT,TemperatureF,Dew PointF,Humidity,Sea Level PressureIn,VisibilityMPH,Wind Direction,Wind SpeedMPH,Gust SpeedMPH,PrecipitationIn,Events,Conditions,WindDirDegrees,DateUTC
12:53 AM,46.9,39.9,77,29.45,10.0,WNW,5.8,-,N/A,,Mostly Cloudy,300,2013-07-02 08:53:00
1:53 AM,45.0,39.9,82,29.46,10.0,NW,8.1,-,N/A,,Clear,310,2013-07-02 09:53:00
2:53 AM,43.0,39.0,86,29.47,10.0,NNW,9.2,-,N/A,,Clear,330,2013-07-02 10:53:00
3:07 AM,42.8,37.4,81,29.47,10.0,NNW,8.1,-,N/A,,Scattered Clouds,340,2013-07-02 11:07:00
3:23 AM,42.8,37.4,81,29.47,9.0,North,6.9,-,N/A,,Mostly Cloudy,350,2013-07-02 11:23:00
3:32 AM,41.0,39.2,93,29.47,1.8,North,6.9,-,N/A,,Overcast,350,2013-07-02 11:32:00
3:49 AM,41.0,37.4,87,29.47,0.2,North,6.9,-,N/A,Fog,Fog,360,2013-07-02 11:49:00
3:53 AM,39.9,37.9,93,29.47,0.2,North,6.9,-,N/A,Fog,Fog,350,2013-07-02 11:53:00
4:37 AM,42.8,39.2,87,29.47,1.5,NNE,6.9,-,N/A,,Overcast,20,2013-07-02 12:37:00
4:48 AM,42.8,41.0,93,29.48,0.5,NNE,6.9,-,N/A,Fog,Fog,20,2013-07-02 12:48:00
4:53 AM,43.0,41.0,93,29.48,0.5,NNE,8.1,-,N/A,Fog,Fog,20,2013-07-02 12:53:00
5:03 AM,44.6,42.8,93,29.47,2.0,NNE,6.9,-,N/A,,Overcast,20,2013-07-02 13:03:00
5:11 AM,44.6,42.8,93,29.47,9.0,North,6.9,-,N/A,,Overcast,10,2013-07-02 13:11:00
5:18 AM,46.4,42.8,87,29.48,10.0,North,6.9,-,N/A,,Overcast,10,2013-07-02 13:18:00
5:53 AM,43.0,41.0,93,29.48,10.0,Calm,Calm,-,N/A,,Overcast,0,2013-07-02 13:53:00
6:53 AM,48.0,44.1,86,29.48,10.0,North,5.8,-,N/A,,Overcast,10,2013-07-02 14:53:00
7:53 AM,51.1,46.9,86,29.49,10.0,NE,5.8,-,N/A,,Overcast,40,2013-07-02 15:53:00
8:53 AM,54.0,48.9,83,29.50,10.0,ENE,4.6,-,0.00,,Overcast,60,2013-07-02 16:53:00
9:53 AM,45.0,39.9,82,29.51,10.0,North,6.9,-,N/A,,Overcast,10,2013-07-02 17:53:00
10:53 AM,44.1,37.9,79,29.51,10.0,North,5.8,-,N/A,,Partly Cloudy,350,2013-07-02 18:53:00
11:53 AM,46.9,39.0,74,29.52,10.0,NNW,4.6,-,N/A,,Clear,340,2013-07-02 19:53:00
12:53 PM,46.0,39.0,76,29.52,10.0,North,8.1,-,N/A,,Mostly Cloudy,350,2013-07-02 20:53:00
1:53 PM,44.1,37.9,79,29.55,10.0,North,6.9,-,N/A,,Scattered Clouds,350,2013-07-02 21:53:00
2:53 PM,50.0,43.0,77,29.55,10.0,North,6.9,-,N/A,,Mostly Cloudy,360,2013-07-02 22:53:00
3:53 PM,45.0,37.9,76,29.56,9.0,NNW,5.8,-,N/A,,Overcast,340,2013-07-02 23:53:00
4:53 PM,44.1,37.9,79,29.57,10.0,NNW,6.9,-,N/A,,Overcast,340,2013-07-03 00:53:00
5:53 PM,41.0,37.0,86,29.56,10.0,North,9.2,-,0.00,,Overcast,360,2013-07-03 01:53:00
6:53 PM,45.0,39.0,80,29.57,10.0,North,6.9,-,0.00,,Overcast,10,2013-07-03 02:53:00
7:53 PM,39.9,36.0,86,29.57,10.0,NNW,9.2,-,N/A,,Overcast,340,2013-07-03 03:53:00
8:53 PM,39.0,35.1,86,29.57,10.0,North,8.1,-,N/A,,Overcast,360,2013-07-03 04:53:00
9:53 PM,39.9,36.0,86,29.58,10.0,North,9.2,-,N/A,,Overcast,10,2013-07-03 05:53:00
10:53 PM,42.1,39.0,89,29.59,10.0,NNE,8.1,-,0.00,Rain,Light Rain,20,2013-07-03 06:53:00
11:53 PM,39.9,37.0,89,29.60,10.0,North,3.5,-,0.00,Rain,Light Rain,360,2013-07-03 07:53:00